Time;durP1;ratioP1;P1;durP2;ratioP2;P2;SDS_P1;SDS_P2;PMS_P1;PMS_P2;Temp;Humidity;BMP_temperature;BMP_pressure;BME280_temperature;BME280_humidity;BME280_pressure;Samples;Min_cycle;Max_cycle;Signal;HPM_P1;HPM_P2
2023/11/20 00:02:02;;;;;;;19.63;2.50;;;9.10;99.90;;;;;;4237922;27;20576;-80
2023/11/20 00:04:04;;;;;;;14.77;1.90;;;9.10;99.90;;;;;;4238629;27;20277;-81
2023/11/20 00:06:07;;;;;;;12.10;1.83;;;9.10;99.90;;;;;;4242127;27;20206;-81
2023/11/20 00:08:09;;;;;;;15.80;2.47;;;9.00;99.90;;;;;;4238848;27;20208;-81
2023/11/20 00:10:12;;;;;;;19.33;2.37;;;9.10;99.90;;;;;;4238280;27;20262;-81
2023/11/20 00:12:13;;;;;;;11.13;2.20;;;9.00;99.90;;;;;;4236828;27;20210;-80
2023/11/20 00:14:15;;;;;;;14.47;2.40;;;9.00;99.90;;;;;;4241971;27;20194;-80
2023/11/20 00:16:17;;;;;;;13.53;2.20;;;9.00;99.90;;;;;;4238774;27;20223;-81
2023/11/20 00:18:21;;;;;;;10.73;2.10;;;9.00;99.90;;;;;;4239408;27;20206;-81
2023/11/20 00:20:23;;;;;;;12.50;2.13;;;9.00;99.90;;;;;;4242844;27;20216;-80
2023/11/20 00:22:24;;;;;;;13.20;2.23;;;9.00;99.90;;;;;;4241284;27;20206;-80
2023/11/20 00:24:26;;;;;;;14.33;2.33;;;9.00;99.90;;;;;;4239789;27;20706;-81
2023/11/20 00:26:28;;;;;;;10.67;1.90;;;9.00;99.90;;;;;;4240185;27;20231;-80
2023/11/20 00:28:30;;;;;;;13.80;2.20;;;9.00;99.90;;;;;;4246194;27;20213;-81
2023/11/20 00:30:32;;;;;;;10.03;1.90;;;9.00;99.90;;;;;;4241072;27;20208;-80
2023/11/20 00:32:36;;;;;;;10.70;1.70;;;9.00;99.90;;;;;;4242460;27;20735;-80
2023/11/20 00:34:40;;;;;;;9.80;1.70;;;9.00;99.90;;;;;;4237816;27;20231;-81
2023/11/20 00:36:43;;;;;;;9.77;1.80;;;9.00;99.90;;;;;;4240314;27;20306;-81
2023/11/20 00:38:45;;;;;;;14.30;2.00;;;8.90;99.90;;;;;;4247813;27;20209;-80
2023/11/20 00:40:47;;;;;;;10.10;1.67;;;9.00;99.90;;;;;;4243024;27;20272;-80
2023/11/20 00:42:49;;;;;;;9.13;1.90;;;9.00;99.90;;;;;;4246190;27;20190;-80
2023/11/20 00:44:50;;;;;;;10.27;1.80;;;9.00;99.90;;;;;;4240920;27;20237;-80
2023/11/20 00:46:52;;;;;;;13.00;1.90;;;9.00;99.90;;;;;;4237930;27;20225;-80
2023/11/20 00:48:54;;;;;;;10.80;2.03;;;9.00;99.90;;;;;;4237275;27;20575;-80
2023/11/20 00:50:57;;;;;;;14.00;2.03;;;9.00;99.90;;;;;;4237782;27;20852;-80
2023/11/20 00:53:00;;;;;;;8.37;1.67;;;9.00;99.90;;;;;;4240976;27;20203;-80
2023/11/20 00:55:09;;;;;;;10.10;1.77;;;9.00;99.90;;;;;;4237338;27;20440;-80
2023/11/20 00:57:11;;;;;;;12.97;1.63;;;8.90;99.90;;;;;;4241638;27;20296;-80
2023/11/20 00:59:12;;;;;;;10.63;1.57;;;8.90;99.90;;;;;;4241287;27;20203;-80
2023/11/20 01:01:14;;;;;;;7.23;1.97;;;8.90;99.90;;;;;;4241934;27;20669;-80
2023/11/20 01:03:16;;;;;;;13.17;2.17;;;9.00;99.90;;;;;;4247201;27;20252;-80
2023/11/20 01:05:22;;;;;;;9.60;1.60;;;8.90;99.90;;;;;;4245526;27;20265;-80
2023/11/20 01:07:25;;;;;;;14.47;2.40;;;8.90;99.90;;;;;;4246574;27;20239;-80
2023/11/20 01:09:27;;;;;;;18.53;2.50;;;8.90;99.90;;;;;;4243399;27;20205;-80
2023/11/20 01:11:29;;;;;;;9.13;1.80;;;8.90;99.90;;;;;;4237386;27;20663;-80
2023/11/20 01:13:30;;;;;;;12.33;2.10;;;8.90;99.90;;;;;;4242927;27;20225;-80
2023/11/20 01:15:32;;;;;;;9.63;1.90;;;8.90;99.90;;;;;;4238879;27;20190;-80
2023/11/20 01:17:34;;;;;;;14.50;2.00;;;8.90;99.90;;;;;;4241752;27;20228;-80
2023/11/20 01:19:36;;;;;;;9.67;1.50;;;8.90;99.90;;;;;;4241042;27;20240;-80
2023/11/20 01:21:40;;;;;;;15.73;2.17;;;8.90;99.90;;;;;;4242715;27;20729;-80
2023/11/20 01:23:42;;;;;;;11.70;1.93;;;8.90;99.90;;;;;;4239197;27;20199;-81
2023/11/20 01:25:44;;;;;;;12.43;2.00;;;8.90;99.90;;;;;;4241300;27;20641;-80
2023/11/20 01:27:46;;;;;;;13.87;1.97;;;8.90;99.90;;;;;;4238046;27;20244;-80
2023/11/20 01:29:47;;;;;;;12.23;2.07;;;8.90;99.90;;;;;;4244189;27;20259;-80
2023/11/20 01:31:49;;;;;;;10.73;1.83;;;8.90;99.90;;;;;;4240619;27;20682;-80
2023/11/20 01:33:52;;;;;;;8.83;1.80;;;8.90;99.90;;;;;;4239749;27;20206;-80
2023/11/20 01:35:54;;;;;;;15.77;2.13;;;8.90;99.90;;;;;;4243397;27;20228;-80
2023/11/20 01:37:56;;;;;;;11.80;2.10;;;8.90;99.90;;;;;;4241671;27;20202;-80
2023/11/20 01:39:59;;;;;;;11.77;1.97;;;8.90;99.90;;;;;;4238923;27;20201;-80
2023/11/20 01:42:03;;;;;;;13.10;2.00;;;8.90;99.90;;;;;;4239761;27;20206;-80
2023/11/20 01:44:06;;;;;;;9.50;1.73;;;8.90;99.90;;;;;;4236735;27;20287;-79
2023/11/20 01:46:10;;;;;;;15.87;2.37;;;8.90;99.90;;;;;;4240386;27;20614;-81
2023/11/20 01:48:12;;;;;;;16.27;2.23;;;8.90;99.90;;;;;;4240233;27;20258;-80
2023/11/20 01:50:15;;;;;;;21.30;2.80;;;8.90;99.90;;;;;;4242976;27;20331;-80
2023/11/20 01:52:17;;;;;;;13.27;2.20;;;8.90;99.90;;;;;;4242947;27;20260;-80
2023/11/20 01:54:23;;;;;;;10.87;1.63;;;8.90;99.90;;;;;;4240223;27;20194;-80
2023/11/20 01:56:29;;;;;;;8.57;1.73;;;8.90;99.90;;;;;;4245034;27;20276;-80
2023/11/20 01:58:32;;;;;;;8.80;1.80;;;8.90;99.90;;;;;;4248140;27;20206;-79
2023/11/20 02:00:34;;;;;;;21.83;2.30;;;8.90;99.90;;;;;;4247835;27;20208;-79
2023/11/20 02:02:38;;;;;;;16.67;2.03;;;8.90;99.90;;;;;;4249019;27;20665;-79
2023/11/20 02:04:40;;;;;;;12.00;1.80;;;8.90;99.90;;;;;;4251747;27;20234;-79
2023/11/20 02:06:42;;;;;;;10.90;1.90;;;8.90;99.90;;;;;;4248974;27;20690;-80
2023/11/20 02:08:43;;;;;;;16.83;2.20;;;8.90;99.90;;;;;;4241066;27;20219;-79
2023/11/20 02:10:45;;;;;;;9.40;1.80;;;8.90;99.90;;;;;;4239559;27;20214;-79
2023/11/20 02:12:50;;;;;;;12.27;1.83;;;8.90;99.90;;;;;;4237804;27;20205;-79
2023/11/20 02:14:52;;;;;;;11.37;2.03;;;8.90;99.90;;;;;;4242347;27;20610;-80
2023/11/20 02:16:54;;;;;;;10.73;1.60;;;8.90;99.90;;;;;;4239549;27;20716;-80
2023/11/20 02:18:55;;;;;;;12.07;2.30;;;8.90;99.90;;;;;;4234827;28;20214;-80
2023/11/20 02:20:57;;;;;;;13.47;1.90;;;8.90;99.90;;;;;;4236555;28;20257;-79
2023/11/20 02:23:00;;;;;;;6.03;1.60;;;8.90;99.90;;;;;;4237307;28;20243;-79
2023/11/20 02:25:02;;;;;;;18.03;2.10;;;8.90;99.90;;;;;;4235824;27;20682;-80
2023/11/20 02:27:19;;;;;;;12.43;1.70;;;8.90;99.90;;;;;;4237447;27;20391;-80
2023/11/20 02:29:38;;;;;;;15.53;2.17;;;8.90;99.90;;;;;;4239170;27;20202;-80
2023/11/20 02:31:42;;;;;;;7.87;1.67;;;9.00;99.90;;;;;;4238389;27;20616;-79
2023/11/20 02:33:44;;;;;;;10.93;1.53;;;8.90;99.90;;;;;;4233761;27;20259;-79
2023/11/20 02:35:46;;;;;;;16.13;2.00;;;8.90;99.90;;;;;;4239883;28;20218;-80
2023/11/20 02:37:47;;;;;;;14.33;1.80;;;8.90;99.90;;;;;;4239049;28;20259;-79
2023/11/20 02:39:51;;;;;;;12.90;1.90;;;9.00;99.90;;;;;;4240923;28;20218;-80
2023/11/20 02:41:52;;;;;;;8.53;1.60;;;9.00;99.90;;;;;;4241151;28;20219;-79
2023/11/20 02:43:53;;;;;;;12.33;1.90;;;8.90;99.90;;;;;;4237058;27;20209;-79
2023/11/20 02:45:57;;;;;;;12.63;1.80;;;9.00;99.90;;;;;;4234646;28;20690;-80
2023/11/20 02:47:59;;;;;;;13.10;1.80;;;9.00;99.90;;;;;;4240118;27;20680;-79
2023/11/20 02:50:00;;;;;;;14.10;1.97;;;9.00;99.90;;;;;;4243011;27;20703;-79
2023/11/20 02:52:03;;;;;;;15.17;1.80;;;9.00;99.90;;;;;;4240101;27;20206;-79
2023/11/20 02:54:05;;;;;;;8.97;1.93;;;9.00;99.90;;;;;;4244631;27;20394;-80
2023/11/20 02:56:07;;;;;;;14.50;1.70;;;9.00;99.90;;;;;;4248858;27;20668;-79
2023/11/20 02:58:08;;;;;;;10.23;1.73;;;9.00;99.90;;;;;;4244139;27;20229;-80
2023/11/20 03:00:12;;;;;;;7.93;1.40;;;9.00;99.90;;;;;;4242977;27;20209;-79
2023/11/20 03:02:15;;;;;;;7.87;1.53;;;9.00;99.90;;;;;;4245647;27;21057;-80
2023/11/20 03:04:18;;;;;;;14.53;1.90;;;9.10;99.90;;;;;;4237508;27;21070;-79
2023/11/20 03:06:20;;;;;;;16.93;2.00;;;9.00;99.90;;;;;;4240575;27;20638;-80
2023/11/20 03:08:22;;;;;;;11.47;1.87;;;9.10;99.90;;;;;;4242612;27;20202;-80
2023/11/20 03:10:26;;;;;;;9.90;2.20;;;9.10;99.90;;;;;;4246712;27;20206;-79
2023/11/20 03:12:29;;;;;;;10.80;1.87;;;9.10;99.90;;;;;;4243404;27;20217;-80
2023/11/20 03:14:31;;;;;;;9.33;1.83;;;9.10;99.90;;;;;;4238936;27;20230;-79
2023/11/20 03:16:32;;;;;;;9.70;1.43;;;9.10;99.90;;;;;;4245562;27;20224;-79
2023/11/20 03:18:36;;;;;;;13.57;1.77;;;9.10;99.90;;;;;;4240761;27;20203;-79
2023/11/20 03:20:38;;;;;;;12.73;1.97;;;9.10;99.90;;;;;;4243717;27;20655;-79
2023/11/20 03:22:40;;;;;;;11.00;1.50;;;9.10;99.90;;;;;;4241075;27;20193;-79
2023/11/20 03:24:41;;;;;;;10.33;1.50;;;9.20;99.90;;;;;;4245363;27;20582;-80
2023/11/20 03:26:43;;;;;;;8.63;1.87;;;9.20;99.90;;;;;;4252306;27;20261;-80
2023/11/20 03:28:45;;;;;;;12.63;2.40;;;9.20;99.90;;;;;;4240852;27;20811;-80
2023/11/20 03:30:49;;;;;;;12.00;1.70;;;9.20;99.90;;;;;;4240012;27;20264;-80
2023/11/20 03:32:51;;;;;;;13.07;1.97;;;9.20;99.90;;;;;;4238173;27;20210;-80
2023/11/20 03:34:55;;;;;;;13.70;1.70;;;9.20;99.90;;;;;;4244979;27;20263;-80
2023/11/20 03:36:56;;;;;;;6.47;1.63;;;9.30;99.90;;;;;;4236851;27;20222;-80
2023/11/20 03:38:59;;;;;;;8.80;1.73;;;9.30;99.90;;;;;;4238560;27;20207;-81
2023/11/20 03:41:01;;;;;;;14.47;2.57;;;9.30;99.90;;;;;;4242495;27;20197;-80
2023/11/20 03:43:03;;;;;;;15.47;2.23;;;9.30;99.90;;;;;;4237344;27;20625;-80
2023/11/20 03:45:08;;;;;;;10.43;1.70;;;9.30;99.90;;;;;;4239608;27;20230;-80
2023/11/20 03:47:10;;;;;;;10.60;1.77;;;9.30;99.90;;;;;;4234269;27;20282;-80
2023/11/20 03:49:12;;;;;;;8.77;1.70;;;9.30;99.90;;;;;;4239900;27;20597;-80
2023/11/20 03:51:18;;;;;;;13.03;1.77;;;9.30;99.90;;;;;;4236892;27;20214;-79
2023/11/20 03:53:20;;;;;;;8.87;1.37;;;9.40;99.90;;;;;;4238794;27;20210;-79
2023/11/20 03:55:22;;;;;;;14.43;2.37;;;9.40;99.90;;;;;;4240563;27;20270;-82
2023/11/20 03:57:23;;;;;;;10.13;1.87;;;9.40;99.90;;;;;;4247619;27;20439;-82
2023/11/20 03:59:25;;;;;;;7.33;1.17;;;9.40;99.90;;;;;;4249606;27;20218;-81
2023/11/20 04:01:27;;;;;;;6.77;1.30;;;9.40;99.90;;;;;;4250756;27;20262;-81
2023/11/20 04:03:29;;;;;;;12.33;1.53;;;9.50;99.90;;;;;;4245662;27;20198;-82
2023/11/20 04:05:31;;;;;;;8.87;1.23;;;9.40;99.90;;;;;;4243816;27;20701;-79
2023/11/20 04:07:34;;;;;;;10.73;1.73;;;9.50;99.90;;;;;;4238693;27;20226;-78
2023/11/20 04:09:35;;;;;;;3.57;0.97;;;9.40;99.90;;;;;;4237021;27;20210;-79
2023/11/20 04:11:37;;;;;;;13.37;1.60;;;9.60;99.90;;;;;;4248747;27;20198;-80
2023/11/20 04:13:40;;;;;;;6.30;1.23;;;9.60;99.90;;;;;;4238597;27;20212;-79
2023/11/20 04:15:42;;;;;;;5.87;0.90;;;9.60;99.90;;;;;;4242567;27;20191;-80
2023/11/20 04:17:45;;;;;;;9.37;1.37;;;9.60;99.90;;;;;;4239712;27;20329;-81
2023/11/20 04:19:47;;;;;;;5.70;1.10;;;9.60;99.90;;;;;;4236994;27;20296;-79
2023/11/20 04:21:49;;;;;;;9.17;1.20;;;9.60;99.90;;;;;;4244576;27;20206;-79
2023/11/20 04:23:53;;;;;;;8.93;1.63;;;9.60;99.90;;;;;;4242829;27;20207;-80
2023/11/20 04:25:55;;;;;;;5.17;1.13;;;9.60;99.90;;;;;;4243310;27;20231;-81
2023/11/20 04:27:57;;;;;;;4.20;0.67;;;9.60;99.90;;;;;;4244935;27;20237;-80
2023/11/20 04:29:59;;;;;;;4.90;1.30;;;9.60;99.90;;;;;;4247684;27;20764;-81
2023/11/20 04:32:01;;;;;;;8.03;1.00;;;9.70;99.90;;;;;;4233631;27;20212;-81
2023/11/20 04:34:03;;;;;;;11.63;1.20;;;9.70;99.90;;;;;;4240849;27;20223;-81
2023/11/20 04:36:08;;;;;;;5.20;1.00;;;9.70;99.90;;;;;;4239478;27;20200;-81
2023/11/20 04:38:10;;;;;;;10.07;1.17;;;9.70;99.90;;;;;;4242516;27;20221;-81
2023/11/20 04:40:14;;;;;;;11.37;1.37;;;9.70;99.90;;;;;;4245278;27;20263;-81
2023/11/20 04:42:15;;;;;;;3.43;0.90;;;9.70;99.90;;;;;;4243543;27;20207;-81
2023/11/20 04:44:17;;;;;;;5.60;1.00;;;9.70;99.90;;;;;;4245906;27;20211;-81
2023/11/20 04:46:18;;;;;;;3.90;1.00;;;9.70;99.90;;;;;;4250230;27;20284;-80
2023/11/20 04:48:20;;;;;;;10.00;1.20;;;9.70;99.90;;;;;;4252522;27;20208;-80
2023/11/20 04:50:22;;;;;;;4.23;0.90;;;9.80;99.90;;;;;;4247842;27;20212;-80
2023/11/20 04:52:24;;;;;;;3.83;0.70;;;9.70;99.90;;;;;;4242489;27;20237;-80
2023/11/20 04:54:26;;;;;;;5.47;1.10;;;9.80;99.90;;;;;;4241248;27;20204;-79
2023/11/20 04:56:29;;;;;;;6.80;1.20;;;9.80;99.90;;;;;;4241846;27;20288;-79
2023/11/20 04:58:31;;;;;;;7.57;1.20;;;9.80;99.90;;;;;;4243844;27;20204;-80
2023/11/20 05:00:34;;;;;;;6.43;1.00;;;9.80;99.90;;;;;;4227650;27;20210;-81
2023/11/20 05:02:36;;;;;;;3.07;1.13;;;9.80;99.90;;;;;;4242250;27;20695;-81
2023/11/20 05:04:38;;;;;;;5.00;0.87;;;9.80;99.90;;;;;;4237675;27;20254;-80
2023/11/20 05:06:40;;;;;;;2.90;0.87;;;9.80;99.90;;;;;;4239232;27;20643;-81
2023/11/20 05:08:42;;;;;;;4.50;0.97;;;9.80;99.90;;;;;;4245694;27;20214;-81
2023/11/20 05:10:43;;;;;;;6.37;0.87;;;9.80;99.90;;;;;;4248868;27;20689;-81
2023/11/20 05:12:47;;;;;;;5.23;1.30;;;9.80;99.90;;;;;;4248866;27;20233;-81
2023/11/20 05:14:48;;;;;;;6.60;1.27;;;9.80;99.90;;;;;;4243329;27;20207;-81
2023/11/20 05:16:50;;;;;;;5.43;0.87;;;9.80;99.90;;;;;;4239835;27;20231;-80
2023/11/20 05:18:52;;;;;;;6.77;1.10;;;9.90;99.90;;;;;;4240116;27;20211;-80
2023/11/20 05:20:54;;;;;;;3.67;0.80;;;9.90;99.90;;;;;;4236615;27;20214;-81
2023/11/20 05:22:57;;;;;;;6.53;1.03;;;9.90;99.90;;;;;;4233788;27;20229;-81
2023/11/20 05:25:00;;;;;;;6.10;1.00;;;9.90;99.90;;;;;;4241387;27;20233;-81
2023/11/20 05:27:01;;;;;;;2.80;0.73;;;9.90;99.90;;;;;;4237572;27;20314;-80
2023/11/20 05:29:05;;;;;;;3.90;0.70;;;9.90;99.90;;;;;;4235862;27;20192;-80
2023/11/20 05:31:07;;;;;;;3.80;0.90;;;9.90;99.90;;;;;;4235592;27;20207;-80
2023/11/20 05:33:10;;;;;;;6.03;0.70;;;9.90;99.90;;;;;;4237477;27;20226;-81
2023/11/20 05:35:13;;;;;;;3.77;0.80;;;9.90;99.90;;;;;;4235674;27;20206;-81
2023/11/20 05:37:15;;;;;;;6.60;1.10;;;9.90;99.90;;;;;;4236357;27;20774;-80
2023/11/20 05:39:18;;;;;;;6.30;0.90;;;9.90;99.90;;;;;;4237911;27;20252;-79
2023/11/20 05:41:20;;;;;;;3.37;0.90;;;9.90;99.90;;;;;;4244692;27;20559;-80
2023/11/20 05:43:21;;;;;;;5.93;0.87;;;9.90;99.90;;;;;;4237691;27;20743;-80
2023/11/20 05:45:24;;;;;;;3.70;1.00;;;9.90;99.90;;;;;;4232063;27;20628;-80
2023/11/20 05:47:26;;;;;;;4.40;0.90;;;9.90;99.90;;;;;;4239262;27;20310;-80
2023/11/20 05:49:28;;;;;;;5.07;0.67;;;9.90;99.90;;;;;;4237192;27;20199;-79
2023/11/20 05:51:30;;;;;;;2.33;0.70;;;10.00;99.90;;;;;;4239370;27;20261;-79
2023/11/20 05:53:32;;;;;;;5.43;0.77;;;9.90;99.90;;;;;;4237499;27;20204;-79
2023/11/20 05:55:34;;;;;;;4.43;0.70;;;10.00;99.90;;;;;;4222657;27;20629;-79
2023/11/20 05:57:38;;;;;;;3.07;0.70;;;10.00;99.90;;;;;;4232245;27;20231;-78
2023/11/20 05:59:43;;;;;;;3.20;0.70;;;10.00;99.90;;;;;;4233931;27;20222;-79
2023/11/20 06:01:47;;;;;;;3.07;0.60;;;10.00;99.90;;;;;;4235367;27;20218;-79
2023/11/20 06:03:48;;;;;;;3.47;0.80;;;9.90;99.90;;;;;;4243436;27;20202;-80
2023/11/20 06:05:50;;;;;;;3.07;0.60;;;10.00;99.90;;;;;;4250095;27;20220;-80
2023/11/20 06:07:52;;;;;;;3.60;0.70;;;10.00;99.90;;;;;;4252173;27;20202;-81
2023/11/20 06:09:54;;;;;;;3.10;0.67;;;10.00;99.90;;;;;;4242232;27;20226;-80
2023/11/20 06:11:56;;;;;;;1.13;0.40;;;10.00;99.90;;;;;;4237691;27;20203;-80
2023/11/20 06:13:58;;;;;;;3.27;0.60;;;10.10;99.90;;;;;;4237083;27;20254;-80
2023/11/20 06:16:01;;;;;;;1.03;0.33;;;10.00;99.90;;;;;;4238784;27;20199;-80
2023/11/20 06:18:05;;;;;;;2.43;0.50;;;10.10;99.90;;;;;;4237786;27;20294;-79
2023/11/20 06:20:09;;;;;;;5.93;0.80;;;10.10;99.90;;;;;;4235299;27;20215;-79
2023/11/20 06:22:11;;;;;;;1.90;0.50;;;10.10;99.90;;;;;;4242241;27;20208;-79
2023/11/20 06:24:14;;;;;;;4.13;0.60;;;10.10;99.90;;;;;;4242807;27;20207;-80
2023/11/20 06:26:18;;;;;;;2.50;0.57;;;10.20;99.90;;;;;;4245429;27;20238;-80
2023/11/20 06:28:20;;;;;;;2.07;0.70;;;10.10;99.90;;;;;;4241737;27;20196;-81
2023/11/20 06:30:22;;;;;;;2.27;0.93;;;10.10;99.90;;;;;;4243920;27;20206;-80
2023/11/20 06:32:27;;;;;;;3.13;0.70;;;10.10;99.90;;;;;;4243372;27;20277;-79
2023/11/20 06:34:31;;;;;;;2.27;0.90;;;10.10;99.90;;;;;;4248904;27;20213;-80
2023/11/20 06:36:33;;;;;;;2.00;0.70;;;10.10;99.90;;;;;;4257389;27;20394;-80
2023/11/20 06:38:35;;;;;;;2.67;1.40;;;10.20;99.90;;;;;;4254883;27;20916;-81
2023/11/20 06:40:38;;;;;;;1.50;0.60;;;10.20;99.90;;;;;;4247701;27;20219;-80
2023/11/20 06:42:40;;;;;;;6.33;1.50;;;10.10;99.90;;;;;;4240897;27;20257;-80
2023/11/20 06:44:42;;;;;;;4.80;0.77;;;10.20;99.90;;;;;;4240386;27;20208;-80
2023/11/20 06:46:44;;;;;;;6.60;0.97;;;10.20;99.90;;;;;;4242377;27;20266;-79
2023/11/20 06:48:46;;;;;;;2.80;0.80;;;10.20;99.90;;;;;;4231710;27;20315;-81
2023/11/20 06:50:50;;;;;;;3.53;0.90;;;10.20;99.90;;;;;;4253678;27;20480;-81
2023/11/20 06:52:52;;;;;;;3.83;1.20;;;10.20;99.90;;;;;;4250277;27;20335;-84
2023/11/20 06:54:54;;;;;;;1.57;0.80;;;10.20;99.90;;;;;;4249263;27;20211;-77
2023/11/20 06:56:56;;;;;;;1.80;0.80;;;10.20;99.90;;;;;;4248698;27;20714;-80
2023/11/20 06:58:58;;;;;;;5.60;1.17;;;10.10;99.90;;;;;;4246266;27;20658;-79
2023/11/20 07:01:04;;;;;;;5.77;0.97;;;10.10;99.90;;;;;;4236980;27;20269;-78
2023/11/20 07:03:06;;;;;;;3.93;1.07;;;10.10;99.90;;;;;;4240884;27;20722;-79
2023/11/20 07:05:11;;;;;;;3.13;0.90;;;10.20;99.90;;;;;;4233745;27;20702;-80
2023/11/20 07:07:15;;;;;;;4.03;1.30;;;10.20;99.90;;;;;;4240468;27;20230;-80
2023/11/20 07:09:18;;;;;;;4.37;1.10;;;10.10;99.90;;;;;;4239001;27;20203;-79
2023/11/20 07:11:19;;;;;;;3.13;0.87;;;10.10;99.90;;;;;;4247530;27;20241;-79
2023/11/20 07:13:21;;;;;;;3.60;0.80;;;10.10;99.90;;;;;;4238877;27;20200;-79
2023/11/20 07:15:24;;;;;;;1.53;0.70;;;10.10;99.90;;;;;;4237325;27;20211;-79
2023/11/20 07:17:26;;;;;;;3.20;1.10;;;10.20;99.90;;;;;;4240540;27;20678;-79
2023/11/20 07:19:28;;;;;;;2.93;0.70;;;10.20;99.90;;;;;;4244496;27;20215;-79
2023/11/20 07:21:29;;;;;;;4.50;1.00;;;10.20;99.90;;;;;;4241318;27;20242;-79
2023/11/20 07:23:32;;;;;;;2.40;0.53;;;10.30;99.90;;;;;;4235753;27;20733;-79
2023/11/20 07:25:34;;;;;;;3.93;1.00;;;10.30;99.90;;;;;;4242196;27;20287;-79
2023/11/20 07:27:36;;;;;;;2.10;0.93;;;10.30;99.90;;;;;;4245376;27;20241;-79
2023/11/20 07:29:38;;;;;;;6.67;0.63;;;10.30;99.90;;;;;;4238643;27;20222;-79
2023/11/20 07:31:40;;;;;;;5.07;0.80;;;10.40;99.90;;;;;;4234162;27;20204;-79
2023/11/20 07:33:42;;;;;;;1.73;0.60;;;10.40;99.90;;;;;;4235537;27;20200;-79
2023/11/20 07:35:43;;;;;;;3.23;0.73;;;10.40;99.90;;;;;;4240047;27;20254;-79
2023/11/20 07:37:45;;;;;;;1.50;0.70;;;10.40;99.90;;;;;;4244586;27;20622;-79
2023/11/20 07:39:48;;;;;;;3.60;1.10;;;10.50;99.90;;;;;;4244732;27;20252;-79
2023/11/20 07:41:51;;;;;;;2.70;0.80;;;10.50;99.90;;;;;;4245081;27;20568;-79
2023/11/20 07:43:53;;;;;;;3.87;1.10;;;10.50;99.90;;;;;;4245729;27;20211;-79
2023/11/20 07:45:55;;;;;;;1.57;0.80;;;10.50;99.90;;;;;;4241864;27;20207;-79
2023/11/20 07:47:57;;;;;;;3.07;0.90;;;10.50;99.90;;;;;;4241621;27;20795;-79
2023/11/20 07:49:59;;;;;;;3.47;0.90;;;10.50;99.90;;;;;;4244012;27;20216;-81
2023/11/20 07:52:00;;;;;;;2.93;0.80;;;10.50;99.90;;;;;;4242958;27;20260;-81
2023/11/20 07:54:02;;;;;;;6.23;1.00;;;10.50;99.90;;;;;;4241433;27;20232;-82
2023/11/20 07:56:06;;;;;;;3.03;1.30;;;10.60;99.90;;;;;;4245331;27;20200;-81
2023/11/20 07:58:08;;;;;;;3.77;0.90;;;10.50;99.90;;;;;;4244032;27;20230;-81
2023/11/20 08:00:11;;;;;;;3.30;0.80;;;10.50;99.90;;;;;;4243226;27;20667;-81
2023/11/20 08:02:13;;;;;;;5.17;1.10;;;10.50;99.90;;;;;;4244917;27;20196;-81
2023/11/20 08:04:16;;;;;;;4.77;0.90;;;10.50;99.90;;;;;;4246753;27;20204;-81
2023/11/20 08:06:19;;;;;;;2.97;0.90;;;10.50;99.90;;;;;;4242174;27;20230;-81
2023/11/20 08:08:23;;;;;;;3.40;1.37;;;10.60;99.90;;;;;;4238777;27;20204;-81
2023/11/20 08:10:25;;;;;;;5.80;1.10;;;10.60;99.90;;;;;;4239391;27;20253;-81
2023/11/20 08:12:29;;;;;;;3.57;0.90;;;10.60;99.90;;;;;;4237284;27;20577;-80
2023/11/20 08:14:31;;;;;;;4.90;1.20;;;10.80;99.90;;;;;;4245044;27;20209;-81
2023/11/20 08:16:33;;;;;;;4.37;1.00;;;10.60;99.90;;;;;;4241204;27;20225;-81
2023/11/20 08:18:36;;;;;;;7.13;1.17;;;10.60;99.90;;;;;;4238876;27;20613;-81
2023/11/20 08:20:38;;;;;;;4.17;1.00;;;10.60;99.90;;;;;;4239392;27;20204;-81
2023/11/20 08:22:40;;;;;;;5.20;1.00;;;10.60;99.90;;;;;;4240870;27;20689;-81
2023/11/20 08:24:43;;;;;;;5.70;1.00;;;10.60;99.90;;;;;;4242956;27;20199;-80
2023/11/20 08:26:46;;;;;;;3.53;1.60;;;10.60;99.90;;;;;;4237733;27;20228;-81
2023/11/20 08:28:50;;;;;;;4.43;1.10;;;10.60;99.90;;;;;;4239122;27;20214;-81
2023/11/20 08:30:53;;;;;;;5.60;1.20;;;10.50;99.90;;;;;;4238496;27;20222;-80
2023/11/20 08:32:55;;;;;;;3.17;0.93;;;10.40;99.90;;;;;;4237879;27;20205;-80
2023/11/20 08:34:56;;;;;;;10.80;1.47;;;10.30;99.90;;;;;;4240581;27;20555;-80
2023/11/20 08:36:58;;;;;;;4.33;0.97;;;10.40;99.90;;;;;;4238904;27;20639;-81
2023/11/20 08:39:02;;;;;;;9.00;1.40;;;10.40;99.90;;;;;;4240824;27;20265;-80
2023/11/20 08:41:05;;;;;;;3.37;1.17;;;10.40;99.90;;;;;;4242978;27;20286;-80
2023/11/20 08:43:08;;;;;;;4.97;0.80;;;10.40;99.90;;;;;;4239293;27;20201;-80
2023/11/20 08:45:11;;;;;;;3.97;1.13;;;10.40;99.90;;;;;;4238456;27;20351;-80
2023/11/20 08:47:13;;;;;;;7.47;1.13;;;10.50;99.90;;;;;;4251005;27;20273;-80
2023/11/20 08:49:15;;;;;;;4.33;0.90;;;10.50;99.90;;;;;;4252346;27;20223;-80
2023/11/20 08:51:18;;;;;;;2.57;0.83;;;10.50;99.90;;;;;;4251770;27;20212;-81
2023/11/20 08:53:21;;;;;;;4.10;0.80;;;10.40;99.90;;;;;;4240405;27;20261;-80
2023/11/20 08:55:24;;;;;;;2.90;0.90;;;10.40;99.90;;;;;;4238546;27;20196;-79
2023/11/20 08:57:26;;;;;;;3.23;1.00;;;10.40;99.90;;;;;;4242401;27;20259;-80
2023/11/20 08:59:28;;;;;;;2.97;0.80;;;10.40;99.90;;;;;;4237152;27;20214;-79
2023/11/20 09:01:33;;;;;;;2.67;1.00;;;10.40;99.90;;;;;;4238541;27;20200;-79
2023/11/20 09:03:35;;;;;;;7.53;0.93;;;10.40;99.90;;;;;;4224955;28;20299;-80
2023/11/20 09:05:39;;;;;;;6.43;1.40;;;10.40;99.90;;;;;;4240651;27;20260;-83
2023/11/20 09:07:41;;;;;;;4.33;0.93;;;10.40;99.90;;;;;;4236194;27;20638;-80
2023/11/20 09:09:43;;;;;;;4.57;1.20;;;10.40;99.90;;;;;;4241491;27;20195;-80
2023/11/20 09:11:51;;;;;;;3.77;0.93;;;10.50;99.90;;;;;;4243335;27;20235;-79
2023/11/20 09:13:53;;;;;;;3.80;1.00;;;10.50;99.90;;;;;;4246150;27;20211;-79
2023/11/20 09:15:55;;;;;;;6.27;1.13;;;10.50;99.90;;;;;;4254463;27;20215;-79
2023/11/20 09:17:58;;;;;;;1.93;0.70;;;10.60;99.90;;;;;;4251300;27;20281;-79
2023/11/20 09:20:01;;;;;;;4.80;1.20;;;10.60;99.90;;;;;;4248417;27;20299;-79
2023/11/20 09:22:04;;;;;;;2.67;0.80;;;10.60;99.90;;;;;;4243334;27;20211;-79
2023/11/20 09:24:06;;;;;;;3.80;0.80;;;10.70;99.90;;;;;;4233867;27;20208;-79
2023/11/20 09:26:08;;;;;;;3.23;1.00;;;10.70;99.90;;;;;;4236369;27;20292;-79
2023/11/20 09:28:12;;;;;;;0.93;0.60;;;10.70;99.90;;;;;;4235226;27;20707;-79
2023/11/20 09:30:16;;;;;;;2.87;0.60;;;10.70;99.90;;;;;;4236393;27;20217;-79
2023/11/20 09:32:17;;;;;;;5.47;1.10;;;10.80;99.90;;;;;;4242083;27;20270;-79
2023/11/20 09:34:20;;;;;;;2.30;0.43;;;10.80;99.90;;;;;;4234609;27;20196;-79
2023/11/20 09:36:23;;;;;;;1.37;0.77;;;10.80;99.90;;;;;;4236447;27;20223;-78
2023/11/20 09:38:24;;;;;;;4.77;0.90;;;10.80;99.90;;;;;;4237349;27;20204;-78
2023/11/20 09:40:26;;;;;;;3.43;0.70;;;10.90;99.90;;;;;;4235733;27;20253;-78
2023/11/20 09:42:29;;;;;;;1.40;0.53;;;10.90;99.90;;;;;;4241200;27;20211;-78
2023/11/20 09:44:35;;;;;;;3.27;0.97;;;11.00;99.90;;;;;;4240761;27;20203;-78
2023/11/20 09:46:38;;;;;;;3.93;0.90;;;11.10;99.90;;;;;;4238736;27;20232;-78
2023/11/20 09:48:43;;;;;;;4.00;1.00;;;11.10;99.90;;;;;;4243666;27;20222;-78
2023/11/20 09:50:49;;;;;;;1.80;0.60;;;11.10;99.90;;;;;;4244318;27;20216;-78
2023/11/20 09:52:52;;;;;;;2.97;0.80;;;11.10;99.90;;;;;;4234899;27;20638;-78
2023/11/20 09:54:57;;;;;;;3.73;0.80;;;11.10;99.90;;;;;;4238657;27;20267;-78
2023/11/20 09:57:00;;;;;;;3.17;0.77;;;11.10;99.90;;;;;;4235642;27;20224;-78
2023/11/20 09:59:03;;;;;;;5.13;0.80;;;11.20;99.90;;;;;;4217940;28;20661;-78
2023/11/20 10:01:08;;;;;;;2.10;0.80;;;11.10;99.90;;;;;;4228806;28;20197;-79
2023/11/20 10:03:12;;;;;;;4.70;1.10;;;11.20;99.90;;;;;;4243551;27;20208;-78
2023/11/20 10:05:18;;;;;;;4.90;0.90;;;11.10;99.90;;;;;;4240273;27;20666;-78
2023/11/20 10:07:25;;;;;;;2.80;1.17;;;11.20;99.90;;;;;;4240041;27;20227;-80
2023/11/20 10:09:28;;;;;;;3.17;0.80;;;11.20;99.90;;;;;;4240746;27;20196;-80
2023/11/20 10:11:33;;;;;;;2.13;0.73;;;11.20;99.90;;;;;;4240666;27;20666;-78
2023/11/20 10:13:35;;;;;;;1.77;0.70;;;11.20;99.90;;;;;;4235769;27;20207;-78
2023/11/20 10:15:38;;;;;;;2.77;0.53;;;11.20;99.90;;;;;;4238706;27;20250;-78
2023/11/20 10:17:40;;;;;;;3.63;0.67;;;11.30;99.90;;;;;;4240339;27;20685;-80
2023/11/20 10:19:42;;;;;;;4.77;0.63;;;11.30;99.90;;;;;;4234436;28;20211;-81
2023/11/20 10:21:46;;;;;;;1.17;0.60;;;11.30;99.90;;;;;;4243884;28;20206;-82
2023/11/20 10:23:54;;;;;;;1.47;0.70;;;11.20;99.90;;;;;;4239129;28;20197;-79
2023/11/20 10:25:56;;;;;;;3.37;0.70;;;11.20;99.90;;;;;;4235566;28;20733;-79
2023/11/20 10:27:57;;;;;;;3.60;0.70;;;11.30;99.90;;;;;;4237758;27;20222;-79
2023/11/20 10:29:59;;;;;;;1.17;0.50;;;11.20;99.90;;;;;;4241017;28;20226;-78
2023/11/20 10:32:02;;;;;;;1.70;0.63;;;11.30;99.90;;;;;;4233398;28;20208;-80
2023/11/20 10:34:06;;;;;;;2.00;0.60;;;11.30;99.90;;;;;;4230706;27;20781;-80
2023/11/20 10:36:12;;;;;;;1.73;0.70;;;11.30;99.90;;;;;;4238418;28;20208;-80
2023/11/20 10:38:14;;;;;;;1.37;0.40;;;11.30;99.90;;;;;;4231158;27;20248;-79
2023/11/20 10:40:19;;;;;;;2.17;0.60;;;11.30;99.90;;;;;;4236006;28;20184;-78
2023/11/20 10:42:21;;;;;;;3.33;0.70;;;11.40;99.90;;;;;;4236349;27;20569;-84